sensor_id;sensor_type;location;lat;lon;timestamp;pressure;altitude;pressure_sealevel;temperature;humidity
14273;BME280;7220;49.450;11.052;2023-03-03T00:01:08;98346.28;;;2.77;69.05
14273;BME280;7220;49.450;11.052;2023-03-03T00:05:09;98350.59;;;2.79;69.08
14273;BME280;7220;49.450;11.052;2023-03-03T00:09:09;98353.28;;;2.78;69.18
14273;BME280;7220;49.450;11.052;2023-03-03T00:13:19;98356.78;;;2.77;68.78
14273;BME280;7220;49.450;11.052;2023-03-03T00:17:22;98356.91;;;2.71;69.27
14273;BME280;7220;49.450;11.052;2023-03-03T00:25:32;98360.72;;;2.54;69.28
14273;BME280;7220;49.450;11.052;2023-03-03T00:29:39;98353.75;;;2.53;69.24
14273;BME280;7220;49.450;11.052;2023-03-03T00:33:50;98356.41;;;2.50;69.61
14273;BME280;7220;49.450;11.052;2023-03-03T00:38:00;98357.22;;;2.53;69.47
14273;BME280;7220;49.450;11.052;2023-03-03T00:42:01;98365.97;;;2.54;69.27
14273;BME280;7220;49.450;11.052;2023-03-03T00:46:21;98362.47;;;2.55;68.72
14273;BME280;7220;49.450;11.052;2023-03-03T00:50:26;98376.66;;;2.42;68.76
14273;BME280;7220;49.450;11.052;2023-03-03T00:54:26;98360.06;;;2.41;68.83
14273;BME280;7220;49.450;11.052;2023-03-03T00:58:27;98365.41;;;2.36;69.66
14273;BME280;7220;49.450;11.052;2023-03-03T01:02:28;98360.25;;;2.32;69.63
14273;BME280;7220;49.450;11.052;2023-03-03T01:06:30;98362.88;;;2.32;69.30
14273;BME280;7220;49.450;11.052;2023-03-03T01:10:34;98363.81;;;2.28;69.62
14273;BME280;7220;49.450;11.052;2023-03-03T01:14:35;98361.34;;;2.17;69.93
14273;BME280;7220;49.450;11.052;2023-03-03T01:18:36;98367.53;;;2.16;69.74
14273;BME280;7220;49.450;11.052;2023-03-03T01:22:36;98361.44;;;2.14;69.16
14273;BME280;7220;49.450;11.052;2023-03-03T01:26:37;98364.91;;;2.16;69.58
14273;BME280;7220;49.450;11.052;2023-03-03T01:30:37;98357.97;;;2.12;69.41
14273;BME280;7220;49.450;11.052;2023-03-03T01:34:38;98361.69;;;1.98;69.66
14273;BME280;7220;49.450;11.052;2023-03-03T01:38:38;98365.34;;;1.88;70.39
14273;BME280;7220;49.450;11.052;2023-03-03T01:42:39;98353.13;;;1.87;70.12
14273;BME280;7220;49.450;11.052;2023-03-03T01:46:47;98356.78;;;1.77;70.80
14273;BME280;7220;49.450;11.052;2023-03-03T01:50:54;98351.59;;;1.73;70.83
14273;BME280;7220;49.450;11.052;2023-03-03T01:55:02;98347.28;;;1.71;70.61
14273;BME280;7220;49.450;11.052;2023-03-03T01:59:22;98349.91;;;1.69;70.88
14273;BME280;7220;49.450;11.052;2023-03-03T02:03:25;98359.69;;;1.58;70.76
14273;BME280;7220;49.450;11.052;2023-03-03T02:07:27;98342.09;;;1.65;70.63
14273;BME280;7220;49.450;11.052;2023-03-03T02:11:30;98347.44;;;1.58;70.66
14273;BME280;7220;49.450;11.052;2023-03-03T02:15:33;98351.78;;;1.61;70.65
14273;BME280;7220;49.450;11.052;2023-03-03T02:19:49;98360.72;;;1.48;71.11
14273;BME280;7220;49.450;11.052;2023-03-03T02:23:59;98355.53;;;1.43;70.77
14273;BME280;7220;49.450;11.052;2023-03-03T02:28:02;98350.41;;;1.34;71.21
14273;BME280;7220;49.450;11.052;2023-03-03T02:32:02;98343.34;;;1.40;70.77
14273;BME280;7220;49.450;11.052;2023-03-03T02:36:02;98354.75;;;1.38;71.11
14273;BME280;7220;49.450;11.052;2023-03-03T02:40:04;98350.47;;;1.29;71.14
14273;BME280;7220;49.450;11.052;2023-03-03T02:44:11;98359.25;;;1.28;71.23
14273;BME280;7220;49.450;11.052;2023-03-03T02:48:12;98356.59;;;1.30;71.21
14273;BME280;7220;49.450;11.052;2023-03-03T02:52:12;98357.59;;;1.19;70.99
14273;BME280;7220;49.450;11.052;2023-03-03T02:56:14;98350.56;;;1.23;70.84
14273;BME280;7220;49.450;11.052;2023-03-03T03:00:14;98355.00;;;1.16;71.23
14273;BME280;7220;49.450;11.052;2023-03-03T03:04:17;98347.31;;;1.05;71.21
14273;BME280;7220;49.450;11.052;2023-03-03T03:08:17;98353.44;;;1.04;71.60
14273;BME280;7220;49.450;11.052;2023-03-03T03:12:18;98350.81;;;1.04;71.60
14273;BME280;7220;49.450;11.052;2023-03-03T03:16:20;98354.25;;;1.09;71.23
14273;BME280;7220;49.450;11.052;2023-03-03T03:20:20;98347.31;;;1.07;71.11
14273;BME280;7220;49.450;11.052;2023-03-03T03:24:20;98362.97;;;1.08;71.03
14273;BME280;7220;49.450;11.052;2023-03-03T03:28:21;98365.63;;;1.07;71.26
14273;BME280;7220;49.450;11.052;2023-03-03T03:32:21;98361.28;;;1.04;71.11
14273;BME280;7220;49.450;11.052;2023-03-03T03:36:21;98367.53;;;0.94;71.57
14273;BME280;7220;49.450;11.052;2023-03-03T03:40:22;98359.72;;;0.91;71.90
14273;BME280;7220;49.450;11.052;2023-03-03T03:44:22;98361.56;;;0.83;72.17
14273;BME280;7220;49.450;11.052;2023-03-03T03:48:24;98372.09;;;0.76;72.50
14273;BME280;7220;49.450;11.052;2023-03-03T03:52:25;98368.69;;;0.68;72.89
14273;BME280;7220;49.450;11.052;2023-03-03T03:56:25;98373.03;;;0.69;72.99
14273;BME280;7220;49.450;11.052;2023-03-03T04:00:25;98379.31;;;0.56;73.53
14273;BME280;7220;49.450;11.052;2023-03-03T04:04:26;98370.53;;;0.57;73.66
14273;BME280;7220;49.450;11.052;2023-03-03T04:08:26;98384.47;;;0.59;73.79
14273;BME280;7220;49.450;11.052;2023-03-03T04:12:26;98367.09;;;0.55;73.88
14273;BME280;7220;49.450;11.052;2023-03-03T04:16:27;98373.16;;;0.58;74.01
14273;BME280;7220;49.450;11.052;2023-03-03T04:20:27;98367.09;;;0.55;73.79
14273;BME280;7220;49.450;11.052;2023-03-03T04:24:27;98375.84;;;0.51;73.90
14273;BME280;7220;49.450;11.052;2023-03-03T04:28:28;98374.06;;;0.56;73.94
14273;BME280;7220;49.450;11.052;2023-03-03T04:32:28;98377.50;;;0.58;73.62
14273;BME280;7220;49.450;11.052;2023-03-03T04:36:29;98379.22;;;0.62;73.52
14273;BME280;7220;49.450;11.052;2023-03-03T04:40:30;98377.56;;;0.55;73.78
14273;BME280;7220;49.450;11.052;2023-03-03T04:44:30;98387.25;;;0.43;74.30
14273;BME280;7220;49.450;11.052;2023-03-03T04:48:30;98382.09;;;0.37;74.59
14273;BME280;7220;49.450;11.052;2023-03-03T04:52:30;98375.91;;;0.44;74.18
14273;BME280;7220;49.450;11.052;2023-03-03T04:56:31;98370.66;;;0.47;74.58
14273;BME280;7220;49.450;11.052;2023-03-03T05:00:31;98382.06;;;0.42;74.67
14273;BME280;7220;49.450;11.052;2023-03-03T05:04:32;98377.59;;;0.52;74.17
14273;BME280;7220;49.450;11.052;2023-03-03T05:08:32;98395.03;;;0.50;74.48
14273;BME280;7220;49.450;11.052;2023-03-03T05:12:33;98391.59;;;0.47;74.78
14273;BME280;7220;49.450;11.052;2023-03-03T05:16:33;98391.63;;;0.41;74.90
14273;BME280;7220;49.450;11.052;2023-03-03T05:20:33;98399.47;;;0.41;74.76
14273;BME280;7220;49.450;11.052;2023-03-03T05:24:34;98404.75;;;0.35;75.46
14273;BME280;7220;49.450;11.052;2023-03-03T05:28:34;98402.13;;;0.37;75.34
14273;BME280;7220;49.450;11.052;2023-03-03T05:32:34;98396.19;;;0.21;75.91
14273;BME280;7220;49.450;11.052;2023-03-03T05:36:35;98406.56;;;0.30;75.62
14273;BME280;7220;49.450;11.052;2023-03-03T05:40:36;98415.28;;;0.32;75.85
14273;BME280;7220;49.450;11.052;2023-03-03T05:44:36;98402.22;;;0.29;76.00
14273;BME280;7220;49.450;11.052;2023-03-03T05:48:36;98403.09;;;0.25;76.47
14273;BME280;7220;49.450;11.052;2023-03-03T05:52:37;98414.56;;;0.08;76.93
14273;BME280;7220;49.450;11.052;2023-03-03T05:56:37;98430.28;;;0.05;77.78
14273;BME280;7220;49.450;11.052;2023-03-03T06:00:37;98418.09;;;0.01;77.38
14273;BME280;7220;49.450;11.052;2023-03-03T06:04:38;98435.56;;;-0.01;77.75
14273;BME280;7220;49.450;11.052;2023-03-03T06:08:38;98437.34;;;-0.08;78.29
14273;BME280;7220;49.450;11.052;2023-03-03T06:12:39;98439.09;;;-0.08;78.57
14273;BME280;7220;49.450;11.052;2023-03-03T06:16:41;98439.13;;;-0.11;78.88
14273;BME280;7220;49.450;11.052;2023-03-03T06:20:41;98446.03;;;-0.07;78.44
14273;BME280;7220;49.450;11.052;2023-03-03T06:24:41;98442.53;;;0.00;78.40
14273;BME280;7220;49.450;11.052;2023-03-03T06:28:42;98454.69;;;0.01;78.09
14273;BME280;7220;49.450;11.052;2023-03-03T06:32:42;98461.69;;;-0.01;78.67
14273;BME280;7220;49.450;11.052;2023-03-03T06:36:42;98471.25;;;0.02;78.65
14273;BME280;7220;49.450;11.052;2023-03-03T06:40:44;98482.50;;;0.14;78.53
14273;BME280;7220;49.450;11.052;2023-03-03T06:44:44;98472.84;;;0.21;78.59
14273;BME280;7220;49.450;11.052;2023-03-03T06:48:44;98479.72;;;0.33;78.46
14273;BME280;7220;49.450;11.052;2023-03-03T06:52:45;98484.00;;;0.40;78.55
14273;BME280;7220;49.450;11.052;2023-03-03T06:56:45;98474.47;;;0.39;78.67
14273;BME280;7220;49.450;11.052;2023-03-03T07:00:54;98488.38;;;0.40;78.35
14273;BME280;7220;49.450;11.052;2023-03-03T07:04:56;98478.84;;;0.36;79.15
14273;BME280;7220;49.450;11.052;2023-03-03T07:08:56;98479.69;;;0.39;79.38
14273;BME280;7220;49.450;11.052;2023-03-03T07:13:23;98491.91;;;0.37;79.67
14273;BME280;7220;49.450;11.052;2023-03-03T07:17:24;98494.53;;;0.34;80.12
14273;BME280;7220;49.450;11.052;2023-03-03T07:21:30;98504.88;;;0.51;79.96
14273;BME280;7220;49.450;11.052;2023-03-03T07:25:33;98498.75;;;0.54;80.16
14273;BME280;7220;49.450;11.052;2023-03-03T07:29:37;98503.09;;;0.52;79.93
14273;BME280;7220;49.450;11.052;2023-03-03T07:33:43;98513.59;;;0.49;80.18
14273;BME280;7220;49.450;11.052;2023-03-03T07:37:44;98521.44;;;0.47;80.32
14273;BME280;7220;49.450;11.052;2023-03-03T07:41:45;98525.78;;;0.50;80.40
14273;BME280;7220;49.450;11.052;2023-03-03T07:45:45;98534.53;;;0.47;80.70
14273;BME280;7220;49.450;11.052;2023-03-03T07:49:47;98531.00;;;0.50;80.91
14273;BME280;7220;49.450;11.052;2023-03-03T07:53:48;98532.72;;;0.52;80.84
14273;BME280;7220;49.450;11.052;2023-03-03T07:57:50;98545.78;;;0.58;80.88
14273;BME280;7220;49.450;11.052;2023-03-03T08:01:54;98536.19;;;0.59;81.52
14273;BME280;7220;49.450;11.052;2023-03-03T08:05:55;98542.28;;;0.59;81.85
14273;BME280;7220;49.450;11.052;2023-03-03T08:10:00;98537.81;;;0.72;82.29
14273;BME280;7220;49.450;11.052;2023-03-03T08:14:01;98540.34;;;0.83;81.89
14273;BME280;7220;49.450;11.052;2023-03-03T08:18:22;98541.13;;;0.93;81.71
14273;BME280;7220;49.450;11.052;2023-03-03T08:22:33;98551.47;;;1.04;82.04
14273;BME280;7220;49.450;11.052;2023-03-03T08:26:37;98544.38;;;1.20;81.31
14273;BME280;7220;49.450;11.052;2023-03-03T08:30:37;98540.72;;;1.33;81.00
14273;BME280;7220;49.450;11.052;2023-03-03T08:34:38;98537.97;;;1.44;81.14
14273;BME280;7220;49.450;11.052;2023-03-03T08:38:38;98547.47;;;1.53;80.81
14273;BME280;7220;49.450;11.052;2023-03-03T08:42:39;98556.16;;;1.58;80.82
14273;BME280;7220;49.450;11.052;2023-03-03T08:46:39;98549.97;;;1.62;80.88
14273;BME280;7220;49.450;11.052;2023-03-03T08:50:40;98557.72;;;1.75;80.61
14273;BME280;7220;49.450;11.052;2023-03-03T08:54:40;98548.88;;;1.82;80.53
14273;BME280;7220;49.450;11.052;2023-03-03T08:58:41;98558.34;;;1.94;80.14
14273;BME280;7220;49.450;11.052;2023-03-03T09:02:48;98537.16;;;2.09;79.95
14273;BME280;7220;49.450;11.052;2023-03-03T09:06:49;98535.19;;;2.24;78.86
14273;BME280;7220;49.450;11.052;2023-03-03T09:10:49;98541.22;;;2.30;78.43
14273;BME280;7220;49.450;11.052;2023-03-03T09:14:50;98534.88;;;2.45;77.64
14273;BME280;7220;49.450;11.052;2023-03-03T09:18:50;98540.00;;;2.53;77.51
14273;BME280;7220;49.450;11.052;2023-03-03T09:22:51;98538.09;;;2.63;76.87
14273;BME280;7220;49.450;11.052;2023-03-03T09:26:51;98538.75;;;2.76;75.61
14273;BME280;7220;49.450;11.052;2023-03-03T09:31:01;98543.63;;;2.97;75.52
14273;BME280;7220;49.450;11.052;2023-03-03T09:39:29;98543.03;;;3.31;73.38
14273;BME280;7220;49.450;11.052;2023-03-03T09:43:39;98541.81;;;3.50;72.10
14273;BME280;7220;49.450;11.052;2023-03-03T09:47:58;98538.97;;;3.62;70.99
14273;BME280;7220;49.450;11.052;2023-03-03T09:56:41;98545.22;;;3.99;70.02
14273;BME280;7220;49.450;11.052;2023-03-03T10:13:25;98551.78;;;4.57;66.49
14273;BME280;7220;49.450;11.052;2023-03-03T10:21:44;98544.19;;;4.81;65.35
14273;BME280;7220;49.450;11.052;2023-03-03T10:25:58;98542.03;;;4.97;65.25
14273;BME280;7220;49.450;11.052;2023-03-03T10:39:02;98533.03;;;5.41;63.69
14273;BME280;7220;49.450;11.052;2023-03-03T11:05:16;98534.16;;;6.25;59.95
14273;BME280;7220;49.450;11.052;2023-03-03T11:09:32;98532.66;;;6.44;59.51
14273;BME280;7220;49.450;11.052;2023-03-03T11:18:14;98525.91;;;6.89;58.75
14273;BME280;7220;49.450;11.052;2023-03-03T11:26:53;98525.47;;;7.03;57.98
14273;BME280;7220;49.450;11.052;2023-03-03T11:39:36;98509.31;;;7.62;55.75
14273;BME280;7220;49.450;11.052;2023-03-03T11:43:43;98504.50;;;7.97;54.60
14273;BME280;7220;49.450;11.052;2023-03-03T11:56:18;98492.81;;;11.20;46.73
14273;BME280;7220;49.450;11.052;2023-03-03T12:00:28;98478.06;;;11.48;44.95
14273;BME280;7220;49.450;11.052;2023-03-03T12:04:49;98474.69;;;12.12;44.86
14273;BME280;7220;49.450;11.052;2023-03-03T12:09:15;98468.16;;;12.18;42.81
14273;BME280;7220;49.450;11.052;2023-03-03T12:18:14;98462.66;;;13.14;41.90
14273;BME280;7220;49.450;11.052;2023-03-03T12:22:28;98458.28;;;13.27;40.92
14273;BME280;7220;49.450;11.052;2023-03-03T12:34:58;98439.22;;;14.06;38.73
14273;BME280;7220;49.450;11.052;2023-03-03T12:39:14;98432.91;;;14.07;38.82
14273;BME280;7220;49.450;11.052;2023-03-03T12:47:45;98426.06;;;14.57;37.44
14273;BME280;7220;49.450;11.052;2023-03-03T12:56:09;98409.19;;;15.10;36.20
14273;BME280;7220;49.450;11.052;2023-03-03T13:04:45;98411.22;;;15.19;35.40
14273;BME280;7220;49.450;11.052;2023-03-03T13:08:57;98423.53;;;15.35;35.10
14273;BME280;7220;49.450;11.052;2023-03-03T13:17:32;98413.19;;;15.80;34.24
14273;BME280;7220;49.450;11.052;2023-03-03T13:21:40;98409.31;;;16.10;33.95
14273;BME280;7220;49.450;11.052;2023-03-03T13:25:49;98404.72;;;16.36;34.22
14273;BME280;7220;49.450;11.052;2023-03-03T13:30:02;98396.84;;;16.22;33.39
14273;BME280;7220;49.450;11.052;2023-03-03T13:34:03;98400.28;;;16.60;33.13
14273;BME280;7220;49.450;11.052;2023-03-03T13:38:05;98395.63;;;16.50;31.70
14273;BME280;7220;49.450;11.052;2023-03-03T13:42:43;98390.81;;;16.67;31.24
14273;BME280;7220;49.450;11.052;2023-03-03T13:47:02;98408.41;;;16.71;31.17
14273;BME280;7220;49.450;11.052;2023-03-03T14:04:08;98380.22;;;18.15;28.58
14273;BME280;7220;49.450;11.052;2023-03-03T14:08:46;98373.50;;;18.09;28.18
14273;BME280;7220;49.450;11.052;2023-03-03T14:13:05;98381.19;;;18.25;28.19
14273;BME280;7220;49.450;11.052;2023-03-03T14:17:14;98378.03;;;18.08;27.93
14273;BME280;7220;49.450;11.052;2023-03-03T14:21:21;98370.72;;;17.99;28.04
14273;BME280;7220;49.450;11.052;2023-03-03T14:25:26;98377.28;;;18.18;27.84
14273;BME280;7220;49.450;11.052;2023-03-03T14:29:47;98368.16;;;17.86;28.78
14273;BME280;7220;49.450;11.052;2023-03-03T14:33:58;98367.03;;;17.89;29.12
14273;BME280;7220;49.450;11.052;2023-03-03T14:38:11;98372.69;;;17.52;29.83
14273;BME280;7220;49.450;11.052;2023-03-03T14:42:30;98366.34;;;17.30;31.19
14273;BME280;7220;49.450;11.052;2023-03-03T14:46:38;98367.91;;;17.10;31.62
14273;BME280;7220;49.450;11.052;2023-03-03T14:50:41;98361.00;;;16.59;32.27
14273;BME280;7220;49.450;11.052;2023-03-03T14:54:44;98357.81;;;16.18;32.66
14273;BME280;7220;49.450;11.052;2023-03-03T14:58:45;98364.63;;;15.35;34.59
14273;BME280;7220;49.450;11.052;2023-03-03T15:03:04;98363.00;;;14.40;35.19
14273;BME280;7220;49.450;11.052;2023-03-03T15:07:27;98376.00;;;13.77;36.43
14273;BME280;7220;49.450;11.052;2023-03-03T15:11:32;98387.16;;;13.26;37.08
14273;BME280;7220;49.450;11.052;2023-03-03T15:15:32;98370.53;;;12.92;37.63
14273;BME280;7220;49.450;11.052;2023-03-03T15:20:12;98377.44;;;12.66;38.87
14273;BME280;7220;49.450;11.052;2023-03-03T15:24:23;98382.34;;;12.27;38.83
14273;BME280;7220;49.450;11.052;2023-03-03T15:28:55;98379.94;;;11.90;39.44
14273;BME280;7220;49.450;11.052;2023-03-03T15:33:28;98380.97;;;11.56;41.30
14273;BME280;7220;49.450;11.052;2023-03-03T15:45:59;98359.88;;;10.85;41.99
14273;BME280;7220;49.450;11.052;2023-03-03T15:50:12;98366.44;;;10.78;42.40
14273;BME280;7220;49.450;11.052;2023-03-03T15:54:27;98374.97;;;10.50;44.19
14273;BME280;7220;49.450;11.052;2023-03-03T16:02:53;98391.41;;;10.21;45.12
14273;BME280;7220;49.450;11.052;2023-03-03T16:07:17;98393.72;;;10.10;44.66
14273;BME280;7220;49.450;11.052;2023-03-03T16:37:00;98421.16;;;9.13;47.31
14273;BME280;7220;49.450;11.052;2023-03-03T16:41:06;98427.78;;;9.03;47.35
14273;BME280;7220;49.450;11.052;2023-03-03T16:45:21;98438.31;;;8.84;47.67
14273;BME280;7220;49.450;11.052;2023-03-03T16:54:02;98437.91;;;8.52;48.32
14273;BME280;7220;49.450;11.052;2023-03-03T16:58:11;98459.31;;;8.46;47.67
14273;BME280;7220;49.450;11.052;2023-03-03T17:06:48;98458.72;;;8.17;47.36
14273;BME280;7220;49.450;11.052;2023-03-03T18:01:19;98542.44;;;6.96;45.73
14273;BME280;7220;49.450;11.052;2023-03-03T18:05:57;98539.06;;;6.91;46.79
14273;BME280;7220;49.450;11.052;2023-03-03T18:22:40;98545.63;;;6.51;47.35
14273;BME280;7220;49.450;11.052;2023-03-03T18:26:41;98546.66;;;6.46;47.37
14273;BME280;7220;49.450;11.052;2023-03-03T18:30:58;98547.91;;;6.35;47.31
14273;BME280;7220;49.450;11.052;2023-03-03T18:35:39;98548.25;;;6.24;47.94
14273;BME280;7220;49.450;11.052;2023-03-03T18:39:48;98541.69;;;6.07;48.43
14273;BME280;7220;49.450;11.052;2023-03-03T18:43:52;98541.66;;;6.09;49.02
14273;BME280;7220;49.450;11.052;2023-03-03T18:52:17;98538.31;;;6.02;48.81
14273;BME280;7220;49.450;11.052;2023-03-03T18:57:20;98560.47;;;5.96;49.36
14273;BME280;7220;49.450;11.052;2023-03-03T19:05:18;98548.84;;;6.04;50.14
14273;BME280;7220;49.450;11.052;2023-03-03T19:18:28;98549.06;;;5.94;50.21
14273;BME280;7220;49.450;11.052;2023-03-03T19:22:44;98543.94;;;5.90;50.17
14273;BME280;7220;49.450;11.052;2023-03-03T19:31:01;98555.19;;;5.96;49.94
14273;BME280;7220;49.450;11.052;2023-03-03T19:43:58;98559.25;;;5.77;50.88
14273;BME280;7220;49.450;11.052;2023-03-03T19:48:25;98565.81;;;5.62;51.39
14273;BME280;7220;49.450;11.052;2023-03-03T19:52:41;98561.91;;;5.44;51.63
14273;BME280;7220;49.450;11.052;2023-03-03T19:56:47;98568.19;;;5.38;51.72
14273;BME280;7220;49.450;11.052;2023-03-03T20:09:46;98576.00;;;5.08;53.14
14273;BME280;7220;49.450;11.052;2023-03-03T20:13:59;98580.44;;;5.06;53.23
14273;BME280;7220;49.450;11.052;2023-03-03T20:22:34;98598.00;;;4.71;53.79
14273;BME280;7220;49.450;11.052;2023-03-03T20:31:38;98610.94;;;4.41;54.99
14273;BME280;7220;49.450;11.052;2023-03-03T20:35:54;98611.00;;;4.38;55.94
14273;BME280;7220;49.450;11.052;2023-03-03T20:40:10;98612.06;;;4.29;56.12
14273;BME280;7220;49.450;11.052;2023-03-03T20:48:25;98627.50;;;4.04;57.44
14273;BME280;7220;49.450;11.052;2023-03-03T20:52:44;98622.09;;;4.10;58.33
14273;BME280;7220;49.450;11.052;2023-03-03T21:01:15;98630.56;;;3.81;60.14
14273;BME280;7220;49.450;11.052;2023-03-03T21:05:21;98636.16;;;3.63;60.55
14273;BME280;7220;49.450;11.052;2023-03-03T21:09:34;98626.66;;;3.56;61.06
14273;BME280;7220;49.450;11.052;2023-03-03T21:13:40;98633.84;;;3.46;61.81
14273;BME280;7220;49.450;11.052;2023-03-03T21:17:41;98631.28;;;3.43;62.08
14273;BME280;7220;49.450;11.052;2023-03-03T21:21:42;98635.84;;;3.34;62.56
14273;BME280;7220;49.450;11.052;2023-03-03T21:25:53;98631.34;;;3.39;62.88
14273;BME280;7220;49.450;11.052;2023-03-03T21:30:06;98630.53;;;3.35;62.66
14273;BME280;7220;49.450;11.052;2023-03-03T21:34:21;98630.66;;;3.29;63.75
14273;BME280;7220;49.450;11.052;2023-03-03T21:38:32;98627.63;;;3.00;64.82
14273;BME280;7220;49.450;11.052;2023-03-03T21:42:41;98629.41;;;2.98;64.68
14273;BME280;7220;49.450;11.052;2023-03-03T21:46:41;98624.22;;;2.95;65.52
14273;BME280;7220;49.450;11.052;2023-03-03T21:50:42;98621.72;;;2.84;66.29
14273;BME280;7220;49.450;11.052;2023-03-03T21:54:48;98630.06;;;2.55;67.17
14273;BME280;7220;49.450;11.052;2023-03-03T21:58:48;98623.72;;;2.70;66.67
14273;BME280;7220;49.450;11.052;2023-03-03T22:02:49;98638.63;;;2.66;66.71
14273;BME280;7220;49.450;11.052;2023-03-03T22:06:49;98631.84;;;2.53;67.83
14273;BME280;7220;49.450;11.052;2023-03-03T22:10:51;98624.81;;;2.55;67.56
14273;BME280;7220;49.450;11.052;2023-03-03T22:14:55;98630.25;;;2.41;67.88
14273;BME280;7220;49.450;11.052;2023-03-03T22:18:55;98625.94;;;2.35;68.61
14273;BME280;7220;49.450;11.052;2023-03-03T22:22:55;98627.81;;;2.27;68.82
14273;BME280;7220;49.450;11.052;2023-03-03T22:26:56;98618.19;;;2.29;69.14
14273;BME280;7220;49.450;11.052;2023-03-03T22:30:56;98637.47;;;2.24;70.05
14273;BME280;7220;49.450;11.052;2023-03-03T22:34:56;98632.47;;;2.07;70.44
14273;BME280;7220;49.450;11.052;2023-03-03T22:38:57;98618.50;;;2.04;70.68
14273;BME280;7220;49.450;11.052;2023-03-03T22:42:57;98637.81;;;1.97;71.37
14273;BME280;7220;49.450;11.052;2023-03-03T22:46:58;98632.69;;;1.86;71.48
14273;BME280;7220;49.450;11.052;2023-03-03T22:50:58;98640.53;;;1.88;72.26
14273;BME280;7220;49.450;11.052;2023-03-03T22:54:59;98616.13;;;1.81;72.59
14273;BME280;7220;49.450;11.052;2023-03-03T22:58:59;98634.44;;;1.86;72.21
14273;BME280;7220;49.450;11.052;2023-03-03T23:02:59;98644.22;;;1.70;73.05
14273;BME280;7220;49.450;11.052;2023-03-03T23:07:00;98625.19;;;1.52;74.00
14273;BME280;7220;49.450;11.052;2023-03-03T23:11:00;98625.13;;;1.58;73.52
14273;BME280;7220;49.450;11.052;2023-03-03T23:15:02;98632.13;;;1.56;73.45
14273;BME280;7220;49.450;11.052;2023-03-03T23:19:05;98639.13;;;1.56;74.07
14273;BME280;7220;49.450;11.052;2023-03-03T23:23:05;98633.97;;;1.47;73.94
14273;BME280;7220;49.450;11.052;2023-03-03T23:27:07;98640.09;;;1.46;74.93
14273;BME280;7220;49.450;11.052;2023-03-03T23:31:07;98636.72;;;1.34;75.20
14273;BME280;7220;49.450;11.052;2023-03-03T23:35:08;98646.31;;;1.34;75.26
14273;BME280;7220;49.450;11.052;2023-03-03T23:39:09;98656.00;;;1.27;75.87
14273;BME280;7220;49.450;11.052;2023-03-03T23:43:09;98642.03;;;1.25;75.79
14273;BME280;7220;49.450;11.052;2023-03-03T23:47:09;98640.28;;;1.27;75.21
14273;BME280;7220;49.450;11.052;2023-03-03T23:51:10;98646.47;;;1.17;76.05
14273;BME280;7220;49.450;11.052;2023-03-03T23:55:10;98653.47;;;1.18;76.02
14273;BME280;7220;49.450;11.052;2023-03-03T23:59:10;98640.31;;;1.24;75.77
